KFTG

Front Range Airport

Denver, Colorado, USA
METAR KFTG 231558Z 15004KT 1/2SM BR OVC003 M06/M07 A3006
Observed Flight Rules
Feb-23 @ 15:58 UTC (38 minutes ago) Instrument Flight Rules
Wind Visibility Clouds Conditions
150° at 4 knots 1/2 miles
  • Overcast at 300' AGL
  • Mist
Temperatures Readings
Current -6°C / 21°F
Dewpoint -7°C / 19°F
Humidity 93%
Altimeter 30.06" Hg
Pressure 1018 hPa
Elevation 1675
METAR KFTG 231558Z 15004KT 1/2SM BR OVC003 M06/M07 A3006
Observed Flight Rules
Feb-23 @ 15:58 UTC
(38 minutes ago)
LIFR
Wind Visibility
150° at 4 knots 1/2 miles
Clouds
  • Overcast at 300' AGL
Conditions
  • Mist
Temperature Dewpoint
-6°C / 21°F -7°C / 19°F
Humidity Altimeter Pressure
93% 30.06" Hg 1018 hPa